Aviation Digital Data Service (ADDS)

Output produced by METARs form (1055 UTC 17 January 2017)
found at http://aviationweather.gov/adds/metars/
 
KJST 170926Z 1709/1806 16005KT 2SM -RA BR SCT010 OVC050 
     FM171200 17008KT 1SM -RA BR OVC002 
     FM171800 21010KT 3SM -RA BR OVC004 
     FM180000 24010KT 5SM -RA BR OVC003